createdAt,value
2022-09-13T00:18:32.821Z,23.0
2022-09-13T00:48:32.784Z,23.0
2022-09-13T01:18:32.807Z,23.0
2022-09-13T01:48:32.782Z,22.9
2022-09-13T02:18:32.805Z,22.8
2022-09-13T02:48:32.773Z,22.8
2022-09-13T03:18:32.826Z,22.8
2022-09-13T03:48:32.764Z,22.7
2022-09-13T04:18:32.800Z,22.7
2022-09-13T04:48:32.796Z,22.7
2022-09-13T05:18:32.804Z,22.7
2022-09-13T05:48:32.752Z,22.7
2022-09-13T06:18:32.805Z,21.5
2022-09-13T06:48:32.779Z,20.7
2022-09-13T07:18:32.777Z,20.4
2022-09-13T07:48:32.766Z,20.5
2022-09-13T08:18:32.781Z,20.5
2022-09-13T08:48:32.756Z,21.1
2022-09-13T09:18:32.851Z,21.6
2022-09-13T09:48:32.934Z,22.0
2022-09-13T10:18:32.758Z,22.2
2022-09-13T10:48:32.775Z,22.4
2022-09-13T11:18:32.774Z,22.5
2022-09-13T11:48:32.766Z,22.6
2022-09-13T12:18:32.807Z,22.6
2022-09-13T12:48:32.730Z,22.8
2022-09-13T13:18:32.764Z,22.9
2022-09-13T13:48:32.801Z,23.0
2022-09-13T14:18:32.746Z,23.1
2022-09-13T14:48:32.708Z,23.1
2022-09-13T15:18:32.733Z,23.0
2022-09-13T15:48:32.743Z,23.0
2022-09-13T16:18:32.798Z,23.0
2022-09-13T16:48:32.760Z,22.9
2022-09-13T17:18:32.821Z,22.8
2022-09-13T17:48:32.704Z,22.8
2022-09-13T18:18:32.729Z,23.0
2022-09-13T18:48:32.721Z,23.1
2022-09-13T19:18:32.716Z,23.3
2022-09-13T19:48:32.728Z,23.5
2022-09-13T20:18:32.730Z,23.3
2022-09-13T20:48:32.698Z,23.2
2022-09-13T21:18:32.667Z,23.1
2022-09-13T21:48:32.710Z,23.0
2022-09-13T22:18:32.698Z,23.0
2022-09-13T22:48:32.707Z,22.9
2022-09-13T23:18:32.654Z,22.9
2022-09-13T23:48:32.650Z,22.8
